sensor_id;sensor_type;location;lat;lon;timestamp;pressure;altitude;pressure_sealevel;temperature;humidity
38289;BME280;24092;53.370;-6.588;2023-04-21T00:00:39;101514.58;;;-0.31;100.00
38289;BME280;24092;53.370;-6.588;2023-04-21T00:03:06;101515.80;;;0.46;100.00
38289;BME280;24092;53.370;-6.588;2023-04-21T00:05:33;101514.15;;;0.85;100.00
38289;BME280;24092;53.370;-6.588;2023-04-21T00:08:00;101514.73;;;1.04;100.00
38289;BME280;24092;53.370;-6.588;2023-04-21T00:10:27;101513.55;;;0.40;100.00
38289;BME280;24092;53.370;-6.588;2023-04-21T00:12:55;101517.57;;;0.27;100.00
38289;BME280;24092;53.370;-6.588;2023-04-21T00:15:22;101514.33;;;0.34;100.00
38289;BME280;24092;53.370;-6.588;2023-04-21T00:17:49;101517.43;;;-0.30;100.00
38289;BME280;24092;53.370;-6.588;2023-04-21T00:20:17;101515.85;;;1.55;100.00
38289;BME280;24092;53.370;-6.588;2023-04-21T00:22:44;101515.79;;;0.52;100.00
38289;BME280;24092;53.370;-6.588;2023-04-21T00:25:11;101522.50;;;0.05;100.00
38289;BME280;24092;53.370;-6.588;2023-04-21T00:27:38;101520.42;;;0.62;100.00
38289;BME280;24092;53.370;-6.588;2023-04-21T00:30:06;101522.69;;;-0.36;100.00
38289;BME280;24092;53.370;-6.588;2023-04-21T00:32:34;101524.00;;;-0.11;100.00
38289;BME280;24092;53.370;-6.588;2023-04-21T00:35:01;101524.19;;;0.12;100.00
38289;BME280;24092;53.370;-6.588;2023-04-21T00:37:28;101523.82;;;-0.70;100.00
38289;BME280;24092;53.370;-6.588;2023-04-21T00:39:55;101523.39;;;-0.36;100.00
38289;BME280;24092;53.370;-6.588;2023-04-21T00:42:22;101518.06;;;0.47;100.00
38289;BME280;24092;53.370;-6.588;2023-04-21T00:44:49;101524.06;;;0.23;100.00
38289;BME280;24092;53.370;-6.588;2023-04-21T00:47:16;101523.14;;;-0.29;100.00
38289;BME280;24092;53.370;-6.588;2023-04-21T00:49:44;101521.59;;;0.01;100.00
38289;BME280;24092;53.370;-6.588;2023-04-21T00:52:13;101518.94;;;0.36;100.00
38289;BME280;24092;53.370;-6.588;2023-04-21T00:54:43;101513.77;;;0.10;100.00
38289;BME280;24092;53.370;-6.588;2023-04-21T00:57:11;101514.88;;;-0.44;100.00
38289;BME280;24092;53.370;-6.588;2023-04-21T00:59:38;101509.84;;;-0.01;100.00
38289;BME280;24092;53.370;-6.588;2023-04-21T01:02:05;101504.42;;;0.36;100.00
38289;BME280;24092;53.370;-6.588;2023-04-21T01:04:32;101508.12;;;0.26;100.00
38289;BME280;24092;53.370;-6.588;2023-04-21T01:06:59;101511.88;;;-0.20;100.00
38289;BME280;24092;53.370;-6.588;2023-04-21T01:09:27;101504.45;;;0.05;100.00
38289;BME280;24092;53.370;-6.588;2023-04-21T01:12:02;101501.90;;;-0.41;100.00
38289;BME280;24092;53.370;-6.588;2023-04-21T01:14:29;101496.33;;;0.13;100.00
38289;BME280;24092;53.370;-6.588;2023-04-21T01:16:57;101497.55;;;-0.05;100.00
38289;BME280;24092;53.370;-6.588;2023-04-21T01:19:27;101493.67;;;0.22;100.00
38289;BME280;24092;53.370;-6.588;2023-04-21T01:21:55;101491.04;;;-0.09;100.00
38289;BME280;24092;53.370;-6.588;2023-04-21T01:24:23;101485.95;;;0.85;100.00
38289;BME280;24092;53.370;-6.588;2023-04-21T01:26:50;101492.76;;;0.04;100.00
38289;BME280;24092;53.370;-6.588;2023-04-21T01:29:17;101489.62;;;0.28;100.00
38289;BME280;24092;53.370;-6.588;2023-04-21T01:31:44;101486.41;;;0.18;100.00
38289;BME280;24092;53.370;-6.588;2023-04-21T01:34:11;101482.98;;;0.07;100.00
38289;BME280;24092;53.370;-6.588;2023-04-21T01:36:38;101473.28;;;0.60;100.00
38289;BME280;24092;53.370;-6.588;2023-04-21T01:39:05;101475.45;;;0.10;100.00
38289;BME280;24092;53.370;-6.588;2023-04-21T01:41:33;101473.41;;;-0.01;100.00
38289;BME280;24092;53.370;-6.588;2023-04-21T01:44:01;101465.12;;;0.04;100.00
38289;BME280;24092;53.370;-6.588;2023-04-21T01:46:28;101455.69;;;0.06;100.00
38289;BME280;24092;53.370;-6.588;2023-04-21T01:48:55;101442.54;;;1.19;100.00
38289;BME280;24092;53.370;-6.588;2023-04-21T01:51:22;101432.30;;;0.12;100.00
38289;BME280;24092;53.370;-6.588;2023-04-21T01:53:49;101432.53;;;-0.10;100.00
38289;BME280;24092;53.370;-6.588;2023-04-21T01:56:16;101427.99;;;0.68;100.00
38289;BME280;24092;53.370;-6.588;2023-04-21T01:58:43;101418.19;;;2.32;100.00
38289;BME280;24092;53.370;-6.588;2023-04-21T02:01:10;101423.83;;;2.53;100.00
38289;BME280;24092;53.370;-6.588;2023-04-21T02:03:37;101416.07;;;2.13;100.00
38289;BME280;24092;53.370;-6.588;2023-04-21T02:06:04;101420.67;;;2.02;100.00
38289;BME280;24092;53.370;-6.588;2023-04-21T02:08:32;101433.54;;;0.60;100.00
38289;BME280;24092;53.370;-6.588;2023-04-21T02:11:00;101421.17;;;1.28;100.00
38289;BME280;24092;53.370;-6.588;2023-04-21T02:13:28;101427.66;;;1.45;100.00
38289;BME280;24092;53.370;-6.588;2023-04-21T02:15:55;101448.07;;;-0.24;100.00
38289;BME280;24092;53.370;-6.588;2023-04-21T02:18:22;101445.18;;;0.52;100.00
38289;BME280;24092;53.370;-6.588;2023-04-21T02:20:49;101438.53;;;-0.13;100.00
38289;BME280;24092;53.370;-6.588;2023-04-21T02:23:16;101443.97;;;0.07;100.00
38289;BME280;24092;53.370;-6.588;2023-04-21T02:25:43;101449.41;;;-0.39;100.00
38289;BME280;24092;53.370;-6.588;2023-04-21T02:28:10;101434.28;;;-1.05;100.00
38289;BME280;24092;53.370;-6.588;2023-04-21T02:30:37;101424.48;;;-0.36;100.00
38289;BME280;24092;53.370;-6.588;2023-04-21T02:33:04;101419.47;;;-0.57;100.00
38289;BME280;24092;53.370;-6.588;2023-04-21T02:35:31;101409.71;;;-1.29;100.00
38289;BME280;24092;53.370;-6.588;2023-04-21T02:37:59;101403.37;;;-0.83;100.00
38289;BME280;24092;53.370;-6.588;2023-04-21T02:40:26;101388.49;;;-1.07;100.00
38289;BME280;24092;53.370;-6.588;2023-04-21T02:42:53;101388.67;;;-1.53;100.00
38289;BME280;24092;53.370;-6.588;2023-04-21T02:45:20;101391.08;;;-0.14;100.00
38289;BME280;24092;53.370;-6.588;2023-04-21T02:47:47;101398.80;;;-1.23;100.00
38289;BME280;24092;53.370;-6.588;2023-04-21T02:50:15;101386.98;;;-0.26;100.00
38289;BME280;24092;53.370;-6.588;2023-04-21T02:52:42;101383.85;;;1.65;100.00
38289;BME280;24092;53.370;-6.588;2023-04-21T02:55:09;101388.05;;;2.76;100.00
38289;BME280;24092;53.370;-6.588;2023-04-21T02:57:37;101385.69;;;1.75;100.00
38289;BME280;24092;53.370;-6.588;2023-04-21T03:00:05;101378.02;;;-0.21;100.00
38289;BME280;24092;53.370;-6.588;2023-04-21T03:02:32;101372.13;;;-0.34;100.00
38289;BME280;24092;53.370;-6.588;2023-04-21T03:04:59;101361.04;;;-0.23;100.00
38289;BME280;24092;53.370;-6.588;2023-04-21T03:07:26;101366.46;;;-0.82;100.00
38289;BME280;24092;53.370;-6.588;2023-04-21T03:09:53;101364.26;;;-0.56;100.00
38289;BME280;24092;53.370;-6.588;2023-04-21T03:12:21;101367.58;;;-0.62;100.00
38289;BME280;24092;53.370;-6.588;2023-04-21T03:14:48;101361.19;;;-0.75;100.00
38289;BME280;24092;53.370;-6.588;2023-04-21T03:17:15;101358.85;;;-0.27;100.00
38289;BME280;24092;53.370;-6.588;2023-04-21T03:19:42;101360.95;;;-0.98;100.00
38289;BME280;24092;53.370;-6.588;2023-04-21T03:22:09;101364.25;;;-0.37;100.00
38289;BME280;24092;53.370;-6.588;2023-04-21T03:24:36;101359.10;;;-0.55;100.00
38289;BME280;24092;53.370;-6.588;2023-04-21T03:27:04;101354.88;;;-0.81;100.00
38289;BME280;24092;53.370;-6.588;2023-04-21T03:29:31;101349.41;;;-0.79;100.00
38289;BME280;24092;53.370;-6.588;2023-04-21T03:31:58;101342.06;;;-0.14;100.00
38289;BME280;24092;53.370;-6.588;2023-04-21T03:34:25;101332.12;;;0.10;100.00
38289;BME280;24092;53.370;-6.588;2023-04-21T03:36:52;101344.90;;;-0.95;100.00
38289;BME280;24092;53.370;-6.588;2023-04-21T03:39:19;101348.24;;;-0.61;100.00
38289;BME280;24092;53.370;-6.588;2023-04-21T03:41:46;101355.39;;;-0.82;100.00
38289;BME280;24092;53.370;-6.588;2023-04-21T03:44:13;101351.11;;;-0.25;100.00
38289;BME280;24092;53.370;-6.588;2023-04-21T03:46:40;101346.40;;;-0.12;100.00
38289;BME280;24092;53.370;-6.588;2023-04-21T03:49:08;101338.77;;;0.02;100.00
38289;BME280;24092;53.370;-6.588;2023-04-21T03:51:35;101332.91;;;0.16;100.00
38289;BME280;24092;53.370;-6.588;2023-04-21T03:54:02;101334.29;;;1.57;100.00
38289;BME280;24092;53.370;-6.588;2023-04-21T03:56:29;101340.63;;;1.49;100.00
38289;BME280;24092;53.370;-6.588;2023-04-21T03:58:56;101332.61;;;0.81;100.00
38289;BME280;24092;53.370;-6.588;2023-04-21T04:01:23;101325.93;;;0.22;100.00
38289;BME280;24092;53.370;-6.588;2023-04-21T04:03:51;101322.56;;;-0.32;100.00
38289;BME280;24092;53.370;-6.588;2023-04-21T04:06:18;101328.13;;;-0.57;100.00
38289;BME280;24092;53.370;-6.588;2023-04-21T04:08:45;101319.96;;;-0.89;100.00
38289;BME280;24092;53.370;-6.588;2023-04-21T04:11:12;101316.86;;;-0.98;100.00
38289;BME280;24092;53.370;-6.588;2023-04-21T04:13:39;101303.44;;;-0.65;100.00
38289;BME280;24092;53.370;-6.588;2023-04-21T04:16:06;101296.95;;;-0.81;100.00
38289;BME280;24092;53.370;-6.588;2023-04-21T04:18:34;101288.91;;;-0.44;100.00
38289;BME280;24092;53.370;-6.588;2023-04-21T04:21:04;101283.08;;;-0.42;100.00
38289;BME280;24092;53.370;-6.588;2023-04-21T04:23:31;101285.78;;;-0.18;100.00
38289;BME280;24092;53.370;-6.588;2023-04-21T04:25:58;101274.59;;;-0.18;100.00
38289;BME280;24092;53.370;-6.588;2023-04-21T04:28:25;101271.24;;;-0.44;100.00
38289;BME280;24092;53.370;-6.588;2023-04-21T04:30:53;101272.71;;;-0.82;100.00
38289;BME280;24092;53.370;-6.588;2023-04-21T04:33:19;101272.37;;;-0.39;100.00
38289;BME280;24092;53.370;-6.588;2023-04-21T04:35:46;101281.38;;;-1.24;100.00
38289;BME280;24092;53.370;-6.588;2023-04-21T04:38:13;101283.11;;;-0.91;100.00
38289;BME280;24092;53.370;-6.588;2023-04-21T04:40:40;101282.30;;;-0.62;100.00
38289;BME280;24092;53.370;-6.588;2023-04-21T04:43:08;101290.71;;;-1.00;100.00
38289;BME280;24092;53.370;-6.588;2023-04-21T04:45:35;101279.88;;;-0.76;100.00
38289;BME280;24092;53.370;-6.588;2023-04-21T04:48:03;101278.96;;;-0.11;100.00
38289;BME280;24092;53.370;-6.588;2023-04-21T04:50:30;101280.46;;;0.59;100.00
38289;BME280;24092;53.370;-6.588;2023-04-21T04:52:57;101278.55;;;-0.69;100.00
38289;BME280;24092;53.370;-6.588;2023-04-21T04:55:25;101282.65;;;-0.67;100.00
38289;BME280;24092;53.370;-6.588;2023-04-21T04:57:52;101285.82;;;-0.58;100.00
38289;BME280;24092;53.370;-6.588;2023-04-21T05:00:19;101290.97;;;-0.15;100.00
38289;BME280;24092;53.370;-6.588;2023-04-21T05:02:46;101293.72;;;-0.55;100.00
38289;BME280;24092;53.370;-6.588;2023-04-21T05:05:13;101288.02;;;-0.21;100.00
38289;BME280;24092;53.370;-6.588;2023-04-21T05:07:41;101275.38;;;1.08;100.00
38289;BME280;24092;53.370;-6.588;2023-04-21T05:10:09;101265.51;;;-0.06;100.00
38289;BME280;24092;53.370;-6.588;2023-04-21T05:12:36;101263.03;;;0.02;100.00
38289;BME280;24092;53.370;-6.588;2023-04-21T05:15:03;101255.65;;;0.80;100.00
38289;BME280;24092;53.370;-6.588;2023-04-21T05:17:32;101254.15;;;0.14;100.00
38289;BME280;24092;53.370;-6.588;2023-04-21T05:20:00;101255.95;;;0.38;100.00
38289;BME280;24092;53.370;-6.588;2023-04-21T05:22:27;101250.31;;;-0.29;100.00
38289;BME280;24092;53.370;-6.588;2023-04-21T05:24:54;101259.42;;;-0.38;100.00
38289;BME280;24092;53.370;-6.588;2023-04-21T05:27:22;101259.63;;;0.49;100.00
38289;BME280;24092;53.370;-6.588;2023-04-21T05:29:49;101246.78;;;-0.35;100.00
38289;BME280;24092;53.370;-6.588;2023-04-21T05:32:16;101240.21;;;-0.74;100.00
38289;BME280;24092;53.370;-6.588;2023-04-21T05:34:43;101236.93;;;-0.35;100.00
38289;BME280;24092;53.370;-6.588;2023-04-21T05:37:10;101244.97;;;-0.29;100.00
38289;BME280;24092;53.370;-6.588;2023-04-21T05:39:37;101243.28;;;-0.68;100.00
38289;BME280;24092;53.370;-6.588;2023-04-21T05:42:04;101243.04;;;-0.58;100.00
38289;BME280;24092;53.370;-6.588;2023-04-21T05:44:31;101243.70;;;-0.32;100.00
38289;BME280;24092;53.370;-6.588;2023-04-21T05:46:59;101245.45;;;0.03;100.00
38289;BME280;24092;53.370;-6.588;2023-04-21T05:49:26;101243.66;;;-0.04;100.00
38289;BME280;24092;53.370;-6.588;2023-04-21T05:51:53;101243.79;;;-0.67;100.00
38289;BME280;24092;53.370;-6.588;2023-04-21T05:54:20;101242.48;;;-1.11;100.00
38289;BME280;24092;53.370;-6.588;2023-04-21T05:56:47;101238.98;;;-1.12;100.00
38289;BME280;24092;53.370;-6.588;2023-04-21T05:59:14;101237.46;;;-0.63;100.00
38289;BME280;24092;53.370;-6.588;2023-04-21T06:01:41;101229.19;;;-0.84;100.00
38289;BME280;24092;53.370;-6.588;2023-04-21T06:04:09;101227.28;;;-0.26;100.00
38289;BME280;24092;53.370;-6.588;2023-04-21T06:06:36;101226.80;;;-1.00;100.00
38289;BME280;24092;53.370;-6.588;2023-04-21T06:09:03;101235.44;;;-0.84;100.00
38289;BME280;24092;53.370;-6.588;2023-04-21T06:11:30;101243.42;;;-0.62;100.00
38289;BME280;24092;53.370;-6.588;2023-04-21T06:13:56;101235.71;;;-0.10;100.00
38289;BME280;24092;53.370;-6.588;2023-04-21T06:16:24;101235.99;;;-0.07;100.00
38289;BME280;24092;53.370;-6.588;2023-04-21T06:18:51;101240.48;;;-0.57;100.00
38289;BME280;24092;53.370;-6.588;2023-04-21T06:21:18;101241.88;;;-0.35;100.00
38289;BME280;24092;53.370;-6.588;2023-04-21T06:23:45;101248.62;;;-0.05;100.00
38289;BME280;24092;53.370;-6.588;2023-04-21T06:26:12;101253.52;;;-0.79;100.00
38289;BME280;24092;53.370;-6.588;2023-04-21T06:28:39;101256.00;;;0.85;100.00
38289;BME280;24092;53.370;-6.588;2023-04-21T06:31:07;101256.75;;;-0.16;100.00
38289;BME280;24092;53.370;-6.588;2023-04-21T06:33:34;101248.64;;;-0.02;100.00
38289;BME280;24092;53.370;-6.588;2023-04-21T06:36:01;101240.30;;;0.67;100.00
38289;BME280;24092;53.370;-6.588;2023-04-21T06:38:29;101231.74;;;0.37;100.00
38289;BME280;24092;53.370;-6.588;2023-04-21T06:40:56;101223.43;;;-0.16;100.00
38289;BME280;24092;53.370;-6.588;2023-04-21T06:43:23;101221.22;;;-0.71;100.00
38289;BME280;24092;53.370;-6.588;2023-04-21T06:45:50;101210.85;;;0.66;100.00
38289;BME280;24092;53.370;-6.588;2023-04-21T06:48:18;101195.28;;;0.66;100.00
38289;BME280;24092;53.370;-6.588;2023-04-21T06:50:45;101188.24;;;0.29;100.00
38289;BME280;24092;53.370;-6.588;2023-04-21T06:53:12;101189.30;;;0.86;100.00
38289;BME280;24092;53.370;-6.588;2023-04-21T06:55:44;101185.11;;;1.47;100.00
38289;BME280;24092;53.370;-6.588;2023-04-21T06:58:11;101183.03;;;0.97;100.00
38289;BME280;24092;53.370;-6.588;2023-04-21T07:00:38;101182.62;;;1.71;100.00
38289;BME280;24092;53.370;-6.588;2023-04-21T07:03:05;101181.02;;;3.31;100.00
38289;BME280;24092;53.370;-6.588;2023-04-21T07:05:33;101184.65;;;2.76;100.00
38289;BME280;24092;53.370;-6.588;2023-04-21T07:08:00;101180.75;;;3.11;100.00
38289;BME280;24092;53.370;-6.588;2023-04-21T07:10:27;101177.50;;;2.26;100.00
38289;BME280;24092;53.370;-6.588;2023-04-21T07:12:55;101175.02;;;1.02;100.00
38289;BME280;24092;53.370;-6.588;2023-04-21T07:15:22;101170.88;;;2.55;100.00
38289;BME280;24092;53.370;-6.588;2023-04-21T07:17:49;101172.64;;;1.50;100.00
38289;BME280;24092;53.370;-6.588;2023-04-21T07:20:16;101171.52;;;1.20;100.00
38289;BME280;24092;53.370;-6.588;2023-04-21T07:22:44;101178.12;;;1.48;100.00
38289;BME280;24092;53.370;-6.588;2023-04-21T07:25:11;101179.71;;;1.93;100.00
38289;BME280;24092;53.370;-6.588;2023-04-21T07:27:38;101181.75;;;2.62;100.00
38289;BME280;24092;53.370;-6.588;2023-04-21T07:30:07;101176.13;;;2.15;100.00
38289;BME280;24092;53.370;-6.588;2023-04-21T07:32:34;101174.72;;;1.47;100.00
38289;BME280;24092;53.370;-6.588;2023-04-21T07:35:02;101175.58;;;2.20;100.00
38289;BME280;24092;53.370;-6.588;2023-04-21T07:37:29;101166.81;;;2.81;100.00
38289;BME280;24092;53.370;-6.588;2023-04-21T07:39:56;101161.59;;;2.28;100.00
38289;BME280;24092;53.370;-6.588;2023-04-21T07:42:23;101158.04;;;2.62;100.00
38289;BME280;24092;53.370;-6.588;2023-04-21T07:44:50;101147.48;;;3.36;100.00
38289;BME280;24092;53.370;-6.588;2023-04-21T07:47:17;101148.72;;;2.83;100.00
38289;BME280;24092;53.370;-6.588;2023-04-21T07:49:45;101146.65;;;3.12;100.00
38289;BME280;24092;53.370;-6.588;2023-04-21T07:52:12;101148.12;;;1.80;100.00
38289;BME280;24092;53.370;-6.588;2023-04-21T07:54:38;101147.00;;;2.98;100.00
38289;BME280;24092;53.370;-6.588;2023-04-21T07:57:05;101153.00;;;2.73;100.00
38289;BME280;24092;53.370;-6.588;2023-04-21T07:59:32;101143.98;;;3.55;100.00
38289;BME280;24092;53.370;-6.588;2023-04-21T08:01:59;101143.11;;;3.41;100.00
38289;BME280;24092;53.370;-6.588;2023-04-21T08:04:26;101139.57;;;3.99;100.00
38289;BME280;24092;53.370;-6.588;2023-04-21T08:06:54;101130.94;;;5.25;100.00
38289;BME280;24092;53.370;-6.588;2023-04-21T08:09:21;101123.00;;;5.35;100.00
38289;BME280;24092;53.370;-6.588;2023-04-21T08:11:47;101119.22;;;5.46;100.00
38289;BME280;24092;53.370;-6.588;2023-04-21T08:14:14;101110.57;;;4.48;100.00
38289;BME280;24092;53.370;-6.588;2023-04-21T08:16:42;101104.62;;;2.84;100.00
38289;BME280;24092;53.370;-6.588;2023-04-21T08:19:09;101113.14;;;2.63;100.00
38289;BME280;24092;53.370;-6.588;2023-04-21T08:21:36;101126.62;;;3.16;100.00
38289;BME280;24092;53.370;-6.588;2023-04-21T08:24:05;101141.73;;;1.67;100.00
38289;BME280;24092;53.370;-6.588;2023-04-21T08:26:32;101154.19;;;1.71;100.00
38289;BME280;24092;53.370;-6.588;2023-04-21T08:28:59;101152.99;;;2.45;100.00
38289;BME280;24092;53.370;-6.588;2023-04-21T08:31:27;101151.24;;;1.72;100.00
38289;BME280;24092;53.370;-6.588;2023-04-21T08:33:54;101150.34;;;1.82;100.00
38289;BME280;24092;53.370;-6.588;2023-04-21T08:36:21;101148.22;;;1.84;100.00
38289;BME280;24092;53.370;-6.588;2023-04-21T08:38:48;101141.87;;;2.31;100.00
38289;BME280;24092;53.370;-6.588;2023-04-21T08:41:15;101132.01;;;1.97;100.00
38289;BME280;24092;53.370;-6.588;2023-04-21T08:43:42;101124.22;;;2.15;100.00
38289;BME280;24092;53.370;-6.588;2023-04-21T08:46:11;101118.46;;;1.99;100.00
38289;BME280;24092;53.370;-6.588;2023-04-21T08:48:38;101118.77;;;1.46;100.00
38289;BME280;24092;53.370;-6.588;2023-04-21T08:51:07;101113.09;;;1.97;100.00
38289;BME280;24092;53.370;-6.588;2023-04-21T08:53:34;101111.38;;;1.65;100.00
38289;BME280;24092;53.370;-6.588;2023-04-21T08:56:02;101110.31;;;2.17;100.00
38289;BME280;24092;53.370;-6.588;2023-04-21T08:58:30;101103.91;;;2.77;100.00
38289;BME280;24092;53.370;-6.588;2023-04-21T09:00:57;101093.63;;;3.44;100.00
38289;BME280;24092;53.370;-6.588;2023-04-21T09:03:25;101092.58;;;2.75;100.00
38289;BME280;24092;53.370;-6.588;2023-04-21T09:05:57;101080.94;;;2.76;100.00
38289;BME280;24092;53.370;-6.588;2023-04-21T09:08:24;101084.51;;;2.61;100.00
38289;BME280;24092;53.370;-6.588;2023-04-21T09:10:52;101066.20;;;2.97;100.00
38289;BME280;24092;53.370;-6.588;2023-04-21T09:13:19;101052.99;;;2.44;100.00
38289;BME280;24092;53.370;-6.588;2023-04-21T09:15:48;101064.19;;;2.53;100.00
38289;BME280;24092;53.370;-6.588;2023-04-21T09:18:16;101060.48;;;3.09;100.00
38289;BME280;24092;53.370;-6.588;2023-04-21T09:20:45;101067.42;;;2.08;100.00
38289;BME280;24092;53.370;-6.588;2023-04-21T09:23:13;101052.43;;;2.29;100.00
38289;BME280;24092;53.370;-6.588;2023-04-21T09:25:41;101051.77;;;2.52;100.00
38289;BME280;24092;53.370;-6.588;2023-04-21T09:28:10;101054.88;;;2.09;100.00
38289;BME280;24092;53.370;-6.588;2023-04-21T09:30:39;101050.39;;;2.85;100.00
38289;BME280;24092;53.370;-6.588;2023-04-21T09:33:06;101050.21;;;2.27;100.00
38289;BME280;24092;53.370;-6.588;2023-04-21T09:35:35;101049.07;;;2.71;100.00
38289;BME280;24092;53.370;-6.588;2023-04-21T09:38:05;101049.68;;;2.58;100.00
38289;BME280;24092;53.370;-6.588;2023-04-21T09:40:35;101047.77;;;2.64;100.00
38289;BME280;24092;53.370;-6.588;2023-04-21T09:43:02;101051.07;;;2.54;100.00
38289;BME280;24092;53.370;-6.588;2023-04-21T09:45:29;101051.50;;;3.28;100.00
38289;BME280;24092;53.370;-6.588;2023-04-21T09:47:58;101056.93;;;2.96;100.00
38289;BME280;24092;53.370;-6.588;2023-04-21T09:50:26;101053.53;;;2.40;100.00
38289;BME280;24092;53.370;-6.588;2023-04-21T09:52:54;101048.66;;;2.81;100.00
38289;BME280;24092;53.370;-6.588;2023-04-21T09:55:26;101041.27;;;2.92;100.00
38289;BME280;24092;53.370;-6.588;2023-04-21T09:57:57;101044.85;;;2.54;100.00
38289;BME280;24092;53.370;-6.588;2023-04-21T10:00:26;101032.12;;;2.99;100.00
38289;BME280;24092;53.370;-6.588;2023-04-21T10:02:56;101028.54;;;3.21;100.00
38289;BME280;24092;53.370;-6.588;2023-04-21T10:05:25;101030.13;;;3.35;100.00
38289;BME280;24092;53.370;-6.588;2023-04-21T10:07:52;101025.87;;;3.91;100.00
38289;BME280;24092;53.370;-6.588;2023-04-21T10:10:23;101021.30;;;2.84;100.00
38289;BME280;24092;53.370;-6.588;2023-04-21T10:12:51;101015.45;;;2.95;100.00
38289;BME280;24092;53.370;-6.588;2023-04-21T10:15:37;101015.46;;;3.77;100.00
38289;BME280;24092;53.370;-6.588;2023-04-21T10:18:14;101007.88;;;3.13;100.00
38289;BME280;24092;53.370;-6.588;2023-04-21T10:20:51;101013.86;;;3.71;100.00
38289;BME280;24092;53.370;-6.588;2023-04-21T10:23:37;101003.43;;;3.49;100.00
38289;BME280;24092;53.370;-6.588;2023-04-21T10:26:08;101003.15;;;2.45;100.00
38289;BME280;24092;53.370;-6.588;2023-04-21T10:28:39;101001.06;;;2.99;100.00
38289;BME280;24092;53.370;-6.588;2023-04-21T10:31:18;101000.56;;;2.81;100.00
38289;BME280;24092;53.370;-6.588;2023-04-21T10:34:20;100994.86;;;2.94;100.00
38289;BME280;24092;53.370;-6.588;2023-04-21T10:37:07;100993.39;;;3.19;100.00
38289;BME280;24092;53.370;-6.588;2023-04-21T10:39:35;100983.61;;;3.63;100.00
38289;BME280;24092;53.370;-6.588;2023-04-21T10:42:23;100985.19;;;2.65;100.00
38289;BME280;24092;53.370;-6.588;2023-04-21T10:44:53;100981.03;;;2.75;100.00
38289;BME280;24092;53.370;-6.588;2023-04-21T10:47:26;100978.67;;;2.80;100.00
38289;BME280;24092;53.370;-6.588;2023-04-21T10:49:55;100980.07;;;2.57;100.00
38289;BME280;24092;53.370;-6.588;2023-04-21T10:52:30;100975.87;;;2.97;100.00
38289;BME280;24092;53.370;-6.588;2023-04-21T10:55:07;100971.90;;;3.29;100.00
38289;BME280;24092;53.370;-6.588;2023-04-21T10:57:34;100968.46;;;2.95;100.00
38289;BME280;24092;53.370;-6.588;2023-04-21T11:00:02;100967.78;;;3.08;100.00
38289;BME280;24092;53.370;-6.588;2023-04-21T11:02:30;100961.58;;;3.03;100.00
38289;BME280;24092;53.370;-6.588;2023-04-21T11:04:58;100959.90;;;3.07;100.00
38289;BME280;24092;53.370;-6.588;2023-04-21T11:07:27;100959.81;;;2.82;100.00
38289;BME280;24092;53.370;-6.588;2023-04-21T11:09:57;100960.36;;;3.29;100.00
38289;BME280;24092;53.370;-6.588;2023-04-21T11:12:26;100953.63;;;3.10;100.00
38289;BME280;24092;53.370;-6.588;2023-04-21T11:14:54;100950.28;;;2.80;100.00
38289;BME280;24092;53.370;-6.588;2023-04-21T11:17:23;100947.90;;;3.03;100.00
38289;BME280;24092;53.370;-6.588;2023-04-21T11:19:51;100938.87;;;3.68;100.00
38289;BME280;24092;53.370;-6.588;2023-04-21T11:22:21;100933.00;;;3.38;100.00
38289;BME280;24092;53.370;-6.588;2023-04-21T11:24:49;100928.46;;;3.79;100.00
38289;BME280;24092;53.370;-6.588;2023-04-21T11:27:17;100921.90;;;4.07;100.00
38289;BME280;24092;53.370;-6.588;2023-04-21T11:29:44;100922.12;;;3.85;100.00
38289;BME280;24092;53.370;-6.588;2023-04-21T11:32:12;100916.19;;;4.02;100.00
38289;BME280;24092;53.370;-6.588;2023-04-21T11:34:39;100910.41;;;3.96;100.00
38289;BME280;24092;53.370;-6.588;2023-04-21T11:37:07;100908.57;;;4.00;100.00
38289;BME280;24092;53.370;-6.588;2023-04-21T11:39:35;100905.47;;;4.08;100.00
38289;BME280;24092;53.370;-6.588;2023-04-21T11:42:06;100895.96;;;4.13;100.00
38289;BME280;24092;53.370;-6.588;2023-04-21T11:44:35;100895.92;;;4.71;100.00
38289;BME280;24092;53.370;-6.588;2023-04-21T11:47:13;100890.04;;;4.43;100.00
38289;BME280;24092;53.370;-6.588;2023-04-21T11:49:44;100876.22;;;4.01;100.00
38289;BME280;24092;53.370;-6.588;2023-04-21T11:52:20;100864.51;;;3.93;100.00
38289;BME280;24092;53.370;-6.588;2023-04-21T11:54:47;100860.58;;;4.68;100.00
38289;BME280;24092;53.370;-6.588;2023-04-21T11:57:17;100856.63;;;4.14;100.00
38289;BME280;24092;53.370;-6.588;2023-04-21T11:59:44;100849.69;;;4.55;100.00
38289;BME280;24092;53.370;-6.588;2023-04-21T12:02:13;100853.07;;;4.76;100.00
38289;BME280;24092;53.370;-6.588;2023-04-21T12:04:56;100845.74;;;5.48;100.00
38289;BME280;24092;53.370;-6.588;2023-04-21T12:07:23;100837.03;;;5.79;100.00
38289;BME280;24092;53.370;-6.588;2023-04-21T12:09:51;100836.56;;;5.38;100.00
38289;BME280;24092;53.370;-6.588;2023-04-21T12:12:19;100833.40;;;5.87;100.00
38289;BME280;24092;53.370;-6.588;2023-04-21T12:14:48;100833.56;;;5.12;100.00
38289;BME280;24092;53.370;-6.588;2023-04-21T12:17:15;100825.19;;;5.32;100.00
38289;BME280;24092;53.370;-6.588;2023-04-21T12:19:43;100811.55;;;5.29;100.00
38289;BME280;24092;53.370;-6.588;2023-04-21T12:22:11;100818.62;;;5.44;100.00
38289;BME280;24092;53.370;-6.588;2023-04-21T12:24:39;100813.05;;;5.52;100.00
38289;BME280;24092;53.370;-6.588;2023-04-21T12:27:08;100804.81;;;5.29;100.00
38289;BME280;24092;53.370;-6.588;2023-04-21T12:29:35;100798.73;;;5.11;100.00
38289;BME280;24092;53.370;-6.588;2023-04-21T12:32:03;100792.55;;;5.64;100.00
38289;BME280;24092;53.370;-6.588;2023-04-21T12:34:30;100789.85;;;5.45;100.00
38289;BME280;24092;53.370;-6.588;2023-04-21T12:36:57;100774.91;;;5.95;100.00
38289;BME280;24092;53.370;-6.588;2023-04-21T12:39:25;100776.95;;;5.84;100.00